Time;durP1;ratioP1;P1;durP2;ratioP2;P2;SDS_P1;SDS_P2;PMS_P1;PMS_P2;Temp;Humidity;BMP_temperature;BMP_pressure;BME280_temperature;BME280_humidity;BME280_pressure;Samples;Min_cycle;Max_cycle;Signal;HPM_P1;HPM_P2
2023/10/05 00:00:27;;;;;;;2.90;2.00;;;;;;;;;;13113685;22;20823;-88
2023/10/05 00:05:23;;;;;;;2.88;1.98;;;;;;;;;;13112473;22;20413;-88
2023/10/05 00:10:27;;;;;;;1.98;1.45;;;;;;;;;;13130896;22;20355;-88
2023/10/05 00:15:31;;;;;;;3.27;1.90;;;;;;;;;;13110723;22;20520;-88
2023/10/05 00:20:38;;;;;;;2.43;1.73;;;;;;;;;;13112392;22;20453;-88
2023/10/05 00:25:41;;;;;;;2.20;1.63;;;;;;;;;;13112331;22;20439;-88
2023/10/05 00:30:44;;;;;;;3.03;2.22;;;;;;;;;;13133736;22;20377;-89
2023/10/05 00:35:49;;;;;;;3.58;2.50;;;;;;;;;;13112355;22;20410;-88
2023/10/05 00:40:56;;;;;;;4.33;2.50;;;;;;;;;;13112523;22;20365;-88
2023/10/05 00:45:59;;;;;;;4.05;2.33;;;;;;;;;;13113612;22;20375;-88
2023/10/05 00:51:09;;;;;;;3.70;2.28;;;;;;;;;;13113424;22;20455;-88
2023/10/05 00:56:12;;;;;;;3.40;2.20;;;;;;;;;;13111944;22;21042;-88
2023/10/05 01:01:23;;;;;;;3.33;2.10;;;;;;;;;;13112128;22;20363;-88
2023/10/05 01:06:32;;;;;;;3.13;1.90;;;;;;;;;;13112283;22;20379;-88
2023/10/05 01:11:42;;;;;;;3.13;2.00;;;;;;;;;;13133177;22;20691;-88
2023/10/05 01:16:45;;;;;;;2.70;1.73;;;;;;;;;;13115268;22;20355;-88
2023/10/05 01:21:51;;;;;;;2.97;2.08;;;;;;;;;;13121115;22;20823;-87
2023/10/05 01:26:55;;;;;;;3.13;1.60;;;;;;;;;;13111723;22;20375;-88
2023/10/05 01:31:57;;;;;;;3.27;1.97;;;;;;;;;;13112069;22;20362;-87
2023/10/05 01:36:59;;;;;;;2.13;1.65;;;;;;;;;;13112321;22;20393;-87
2023/10/05 01:42:06;;;;;;;3.93;1.90;;;;;;;;;;13112711;22;20355;-88
2023/10/05 01:47:08;;;;;;;4.10;2.10;;;;;;;;;;13114582;22;20375;-88
2023/10/05 01:52:10;;;;;;;3.00;2.00;;;;;;;;;;13115090;22;20360;-88
2023/10/05 01:57:16;;;;;;;3.22;1.88;;;;;;;;;;13114934;22;21062;-89
2023/10/05 02:02:19;;;;;;;3.08;1.90;;;;;;;;;;13114070;22;20375;-88
2023/10/05 02:07:23;;;;;;;2.60;2.20;;;;;;;;;;13115080;22;20672;-88
2023/10/05 02:12:29;;;;;;;2.88;1.90;;;;;;;;;;13115350;22;20363;-88
2023/10/05 02:17:32;;;;;;;3.53;2.30;;;;;;;;;;13115300;22;20393;-88
2023/10/05 02:22:34;;;;;;;3.47;2.43;;;;;;;;;;13113729;22;20350;-88
2023/10/05 02:27:46;;;;;;;3.93;2.47;;;;;;;;;;13115412;22;20409;-88
2023/10/05 02:32:48;;;;;;;2.88;2.38;;;;;;;;;;13114886;22;20834;-88
2023/10/05 02:37:52;;;;;;;4.70;3.00;;;;;;;;;;13136567;22;20364;-89
2023/10/05 02:42:56;;;;;;;4.47;2.92;;;;;;;;;;13113953;22;20419;-88
2023/10/05 02:47:59;;;;;;;4.43;2.87;;;;;;;;;;13115354;22;20915;-88
2023/10/05 02:53:05;;;;;;;4.00;3.28;;;;;;;;;;13136827;22;20873;-88
2023/10/05 02:58:09;;;;;;;3.63;2.80;;;;;;;;;;13113894;22;20390;-88
2023/10/05 03:03:14;;;;;;;6.03;3.20;;;;;;;;;;13113637;22;20359;-88
2023/10/05 03:08:16;;;;;;;4.63;3.53;;;;;;;;;;13114024;22;20379;-88
2023/10/05 03:13:20;;;;;;;5.03;3.20;;;;;;;;;;13136531;22;20412;-88
2023/10/05 03:18:25;;;;;;;5.40;3.60;;;;;;;;;;13114555;22;20363;-89
2023/10/05 03:23:27;;;;;;;6.00;3.93;;;;;;;;;;13113933;22;20385;-88
2023/10/05 03:28:34;;;;;;;6.55;4.07;;;;;;;;;;13114255;22;20379;-88
2023/10/05 03:33:38;;;;;;;5.80;4.30;;;;;;;;;;13119755;22;21079;-88
2023/10/05 03:38:41;;;;;;;8.33;4.67;;;;;;;;;;13120783;22;20452;-88
2023/10/05 03:43:45;;;;;;;5.78;4.43;;;;;;;;;;13114246;22;20379;-89
2023/10/05 03:48:48;;;;;;;7.00;4.15;;;;;;;;;;13112910;22;20437;-88
2023/10/05 03:53:51;;;;;;;6.75;4.65;;;;;;;;;;13113788;22;20359;-88
2023/10/05 03:58:55;;;;;;;7.53;5.20;;;;;;;;;;13113874;22;20680;-88
2023/10/05 04:04:00;;;;;;;7.55;4.93;;;;;;;;;;13112927;22;20416;-88
2023/10/05 04:09:03;;;;;;;8.47;5.43;;;;;;;;;;13115900;22;20454;-88
2023/10/05 04:14:08;;;;;;;7.10;4.83;;;;;;;;;;13113686;22;20367;-89
2023/10/05 04:19:11;;;;;;;7.07;4.70;;;;;;;;;;13112512;22;20363;-89
2023/10/05 04:24:14;;;;;;;7.07;4.80;;;;;;;;;;13112899;22;20741;-89
2023/10/05 04:29:20;;;;;;;7.63;5.30;;;;;;;;;;13111989;22;20424;-88
2023/10/05 04:34:24;;;;;;;7.50;4.93;;;;;;;;;;13111636;22;20363;-88
2023/10/05 04:39:29;;;;;;;7.97;5.63;;;;;;;;;;13113178;22;20393;-88
2023/10/05 04:44:34;;;;;;;9.98;5.60;;;;;;;;;;13112314;22;20359;-88
2023/10/05 04:49:37;;;;;;;8.32;5.82;;;;;;;;;;13120690;22;20397;-89
2023/10/05 04:54:40;;;;;;;12.85;5.95;;;;;;;;;;13110174;22;20428;-88
2023/10/05 04:59:59;;;;;;;9.80;6.53;;;;;;;;;;13131315;22;20810;-88
2023/10/05 05:05:21;;;;;;;17.77;10.20;;;;;;;;;;13109049;22;20854;-88
2023/10/05 05:10:23;;;;;;;10.70;6.53;;;;;;;;;;13111562;22;20359;-86
2023/10/05 05:15:28;;;;;;;9.05;6.25;;;;;;;;;;13111129;22;20389;-88
2023/10/05 05:20:30;;;;;;;8.88;6.80;;;;;;;;;;13113038;22;20355;-87
2023/10/05 05:25:33;;;;;;;10.23;6.97;;;;;;;;;;13112607;22;20379;-88
2023/10/05 05:30:37;;;;;;;11.13;6.50;;;;;;;;;;13113243;22;20363;-88
2023/10/05 05:35:40;;;;;;;15.87;10.57;;;;;;;;;;13114950;22;20385;-89
2023/10/05 05:40:44;;;;;;;14.15;10.90;;;;;;;;;;13113118;22;20367;-89
2023/10/05 05:45:49;;;;;;;16.60;10.35;;;;;;;;;;13135356;22;20393;-88
2023/10/05 05:50:53;;;;;;;14.02;9.88;;;;;;;;;;13114961;22;20811;-88
2023/10/05 05:56:00;;;;;;;11.73;8.57;;;;;;;;;;13118161;22;20676;-88
2023/10/05 06:01:04;;;;;;;10.53;6.83;;;;;;;;;;13112439;22;20912;-88
2023/10/05 06:06:08;;;;;;;9.15;6.18;;;;;;;;;;13115716;22;20405;-87
2023/10/05 06:11:12;;;;;;;9.60;6.30;;;;;;;;;;13113790;22;20355;-88
2023/10/05 06:16:17;;;;;;;10.45;6.30;;;;;;;;;;13113533;22;20941;-88
2023/10/05 06:21:20;;;;;;;10.33;6.87;;;;;;;;;;13115242;22;20359;-88
2023/10/05 06:26:24;;;;;;;11.00;6.37;;;;;;;;;;13113975;22;20732;-88
2023/10/05 06:31:28;;;;;;;8.80;6.10;;;;;;;;;;13135051;22;20381;-87
2023/10/05 06:36:30;;;;;;;8.57;6.07;;;;;;;;;;13113833;22;20741;-87
2023/10/05 06:41:34;;;;;;;11.20;5.93;;;;;;;;;;13135103;22;20351;-88
2023/10/05 06:46:39;;;;;;;10.13;6.13;;;;;;;;;;13113484;22;20452;-88
2023/10/05 06:51:43;;;;;;;9.07;6.07;;;;;;;;;;13114419;22;20367;-87
2023/10/05 06:56:49;;;;;;;8.07;5.65;;;;;;;;;;13114107;22;20412;-87
2023/10/05 07:01:53;;;;;;;9.47;5.87;;;;;;;;;;13114773;22;20363;-84
2023/10/05 07:06:55;;;;;;;10.83;5.67;;;;;;;;;;13129811;22;20367;-85
2023/10/05 07:11:58;;;;;;;8.15;5.95;;;;;;;;;;13129619;22;20428;-84
2023/10/05 07:17:02;;;;;;;8.57;5.50;;;;;;;;;;13108139;22;20359;-85
2023/10/05 07:22:05;;;;;;;6.60;4.63;;;;;;;;;;13107778;22;20367;-85
2023/10/05 07:27:07;;;;;;;6.20;4.67;;;;;;;;;;13107925;22;20379;-86
2023/10/05 07:32:12;;;;;;;8.18;5.00;;;;;;;;;;13108782;22;20426;-85
2023/10/05 07:37:15;;;;;;;8.13;5.15;;;;;;;;;;13109556;22;20363;-86
2023/10/05 07:42:17;;;;;;;7.00;4.43;;;;;;;;;;13109632;22;20424;-86
2023/10/05 07:47:21;;;;;;;7.20;4.75;;;;;;;;;;13108916;22;20449;-85
2023/10/05 07:52:23;;;;;;;6.13;3.85;;;;;;;;;;13108376;22;20363;-85
2023/10/05 07:57:26;;;;;;;5.18;3.42;;;;;;;;;;13108945;22;20405;-86
2023/10/05 08:02:31;;;;;;;4.50;2.50;;;;;;;;;;13129448;22;20356;-86
2023/10/05 08:07:33;;;;;;;6.82;2.90;;;;;;;;;;13107983;22;20379;-86
2023/10/05 08:12:35;;;;;;;4.97;3.00;;;;;;;;;;13108077;22;20363;-86
2023/10/05 08:17:39;;;;;;;5.68;3.00;;;;;;;;;;13107351;22;20389;-85
2023/10/05 08:22:41;;;;;;;3.63;2.03;;;;;;;;;;13109674;22;20366;-85
2023/10/05 08:27:44;;;;;;;4.83;2.20;;;;;;;;;;13109892;22;20428;-85
2023/10/05 08:32:48;;;;;;;3.58;2.00;;;;;;;;;;13110275;22;20363;-86
2023/10/05 08:37:52;;;;;;;3.25;1.77;;;;;;;;;;13108470;22;20363;-85
2023/10/05 08:42:57;;;;;;;3.33;1.92;;;;;;;;;;13130369;22;20424;-85
2023/10/05 08:48:04;;;;;;;3.20;1.70;;;;;;;;;;13108182;22;20444;-85
2023/10/05 08:53:13;;;;;;;2.60;1.60;;;;;;;;;;13128902;22;20377;-85
2023/10/05 08:58:18;;;;;;;2.95;1.70;;;;;;;;;;13107944;22;20464;-84
2023/10/05 09:03:35;;;;;;;2.88;1.42;;;;;;;;;;13107121;22;20363;-84
2023/10/05 09:08:42;;;;;;;2.70;1.50;;;;;;;;;;13105812;22;20441;-85
2023/10/05 09:13:45;;;;;;;3.03;1.80;;;;;;;;;;13105559;22;20356;-84
2023/10/05 09:18:51;;;;;;;4.47;2.30;;;;;;;;;;13106548;22;20420;-85
2023/10/05 09:23:53;;;;;;;4.13;1.83;;;;;;;;;;13107665;22;20355;-85
2023/10/05 09:29:12;;;;;;;3.63;1.85;;;;;;;;;;13107705;22;20444;-84
2023/10/05 09:34:17;;;;;;;4.03;1.98;;;;;;;;;;13106735;22;20416;-84
2023/10/05 09:39:20;;;;;;;5.97;2.07;;;;;;;;;;13127920;22;20819;-84
2023/10/05 09:44:28;;;;;;;3.50;2.00;;;;;;;;;;13107405;22;20389;-85
2023/10/05 09:49:34;;;;;;;7.40;1.92;;;;;;;;;;13105847;22;20379;-85
2023/10/05 09:54:40;;;;;;;4.55;1.80;;;;;;;;;;13107824;22;20421;-85
2023/10/05 09:59:44;;;;;;;4.53;1.88;;;;;;;;;;13106230;22;20424;-85
2023/10/05 10:04:49;;;;;;;3.53;1.70;;;;;;;;;;13107269;22;20389;-85
2023/10/05 10:09:54;;;;;;;2.95;1.80;;;;;;;;;;13129574;22;20383;-86
2023/10/05 10:14:58;;;;;;;3.83;1.90;;;;;;;;;;13109496;22;20371;-85
2023/10/05 10:20:28;;;;;;;3.05;1.83;;;;;;;;;;13110608;22;20416;-85
2023/10/05 10:25:38;;;;;;;4.23;2.30;;;;;;;;;;13109628;22;20364;-85
2023/10/05 10:30:46;;;;;;;2.97;2.08;;;;;;;;;;13109864;22;20436;-86
2023/10/05 10:35:50;;;;;;;3.35;2.03;;;;;;;;;;13110754;22;20360;-85
2023/10/05 10:41:15;;;;;;;3.05;2.17;;;;;;;;;;13110051;22;20440;-85
2023/10/05 10:46:28;;;;;;;3.60;1.90;;;;;;;;;;13110674;22;20704;-87
2023/10/05 10:51:37;;;;;;;5.50;2.30;;;;;;;;;;13111612;22;20355;-86
2023/10/05 10:56:43;;;;;;;3.50;2.00;;;;;;;;;;13111703;22;20355;-90
2023/10/05 11:01:52;;;;;;;3.25;2.15;;;;;;;;;;13114230;22;20367;-90
2023/10/05 11:07:05;;;;;;;3.45;1.92;;;;;;;;;;13115713;22;20383;-90
2023/10/05 11:12:15;;;;;;;4.73;2.50;;;;;;;;;;13114389;22;20359;-91
2023/10/05 11:17:35;;;;;;;3.35;2.00;;;;;;;;;;13108977;22;20372;-90
2023/10/05 11:22:42;;;;;;;4.20;2.20;;;;;;;;;;13124984;22;20367;-91
2023/10/05 11:27:47;;;;;;;4.70;2.37;;;;;;;;;;13106142;22;20376;-90
2023/10/05 11:32:55;;;;;;;4.38;2.40;;;;;;;;;;13106912;22;20856;-90
2023/10/05 11:38:03;;;;;;;4.90;2.42;;;;;;;;;;13127698;22;20359;-90
2023/10/05 11:43:13;;;;;;;3.72;2.33;;;;;;;;;;13107473;22;20500;-90
2023/10/05 11:48:20;;;;;;;3.97;2.08;;;;;;;;;;13107693;22;21093;-89
2023/10/05 11:53:24;;;;;;;3.45;2.38;;;;;;;;;;13114663;22;20441;-91
2023/10/05 11:58:26;;;;;;;4.53;2.40;;;;;;;;;;13105878;22;20375;-92
2023/10/05 12:03:29;;;;;;;4.75;2.65;;;;;;;;;;13131619;22;20516;-84
2023/10/05 12:08:34;;;;;;;4.60;2.70;;;;;;;;;;13109164;22;20379;-91
2023/10/05 12:13:38;;;;;;;4.20;2.63;;;;;;;;;;13110079;22;20359;-87
2023/10/05 12:18:42;;;;;;;5.57;2.50;;;;;;;;;;13111488;22;20379;-89
2023/10/05 12:23:45;;;;;;;4.77;2.60;;;;;;;;;;13114076;22;21213;-88
2023/10/05 12:28:48;;;;;;;4.07;2.45;;;;;;;;;;13111990;22;20471;-88
2023/10/05 12:33:50;;;;;;;5.35;2.70;;;;;;;;;;13111866;22;20419;-89
2023/10/05 12:38:54;;;;;;;5.18;2.80;;;;;;;;;;13113602;22;20389;-90
2023/10/05 12:43:56;;;;;;;3.30;2.20;;;;;;;;;;13112142;22;20355;-90
2023/10/05 12:49:07;;;;;;;4.65;2.72;;;;;;;;;;13112353;22;20409;-90
2023/10/05 12:54:18;;;;;;;3.97;2.70;;;;;;;;;;13109252;22;20366;-90
2023/10/05 12:59:21;;;;;;;4.70;2.78;;;;;;;;;;13111967;22;20375;-90
2023/10/05 13:04:23;;;;;;;4.90;2.70;;;;;;;;;;13111377;22;20389;-90
2023/10/05 13:09:28;;;;;;;3.37;2.63;;;;;;;;;;13110546;22;20375;-88
2023/10/05 13:14:32;;;;;;;4.20;2.75;;;;;;;;;;13128662;22;20343;-89
2023/10/05 13:19:35;;;;;;;4.18;2.70;;;;;;;;;;13111384;22;20389;-88
2023/10/05 13:24:40;;;;;;;5.93;2.70;;;;;;;;;;13004921;22;20901;-87
2023/10/05 13:29:44;;;;;;;4.63;2.38;;;;;;;;;;13108541;22;20383;-88
2023/10/05 13:34:46;;;;;;;4.20;2.55;;;;;;;;;;13111619;22;20436;-88
2023/10/05 13:39:53;;;;;;;5.70;2.97;;;;;;;;;;13133018;22;20413;-88
2023/10/05 13:44:56;;;;;;;5.90;3.00;;;;;;;;;;13135517;22;20347;-87
2023/10/05 13:50:07;;;;;;;4.82;2.95;;;;;;;;;;13113791;22;20854;-88
2023/10/05 13:55:14;;;;;;;3.88;2.30;;;;;;;;;;13114360;22;20424;-88
2023/10/05 14:00:19;;;;;;;6.40;3.25;;;;;;;;;;13115639;22;20704;-90
2023/10/05 14:05:24;;;;;;;6.70;3.00;;;;;;;;;;13119602;22;20410;-90
2023/10/05 14:10:28;;;;;;;4.53;3.17;;;;;;;;;;13119590;22;20405;-90
2023/10/05 14:15:31;;;;;;;4.93;3.30;;;;;;;;;;13115978;22;21022;-90
2023/10/05 14:20:34;;;;;;;3.83;3.00;;;;;;;;;;13137641;22;20344;-90
2023/10/05 14:25:38;;;;;;;4.57;3.10;;;;;;;;;;13112053;22;20393;-90
2023/10/05 14:30:43;;;;;;;4.85;2.75;;;;;;;;;;13109274;22;20432;-90
2023/10/05 14:35:45;;;;;;;5.73;3.10;;;;;;;;;;13108438;22;20440;-90
2023/10/05 14:40:50;;;;;;;4.57;3.35;;;;;;;;;;13108163;22;20378;-91
2023/10/05 14:45:54;;;;;;;5.90;3.60;;;;;;;;;;13109060;22;20783;-91
2023/10/05 14:50:58;;;;;;;4.82;3.38;;;;;;;;;;13109400;22;20847;-91
2023/10/05 14:56:02;;;;;;;5.72;3.50;;;;;;;;;;13108437;22;20371;-91
2023/10/05 15:01:06;;;;;;;4.15;3.58;;;;;;;;;;13109728;22;20375;-91
2023/10/05 15:06:11;;;;;;;6.27;3.60;;;;;;;;;;13123936;22;20738;-92
2023/10/05 15:11:15;;;;;;;5.63;3.75;;;;;;;;;;13108195;22;20409;-92
2023/10/05 15:16:17;;;;;;;4.97;3.40;;;;;;;;;;13103472;22;20412;-91
2023/10/05 15:21:19;;;;;;;5.85;3.90;;;;;;;;;;13104704;22;20699;-92
2023/10/05 15:26:23;;;;;;;4.57;3.15;;;;;;;;;;13104172;22;20364;-91
2023/10/05 15:31:26;;;;;;;5.47;3.60;;;;;;;;;;13104854;22;20879;-92
2023/10/05 15:36:28;;;;;;;4.72;3.17;;;;;;;;;;13103439;22;20908;-91
2023/10/05 15:41:32;;;;;;;5.43;3.50;;;;;;;;;;13107187;22;20424;-91
2023/10/05 15:46:35;;;;;;;4.90;3.13;;;;;;;;;;13099401;22;20532;-90
2023/10/05 15:51:39;;;;;;;4.93;3.47;;;;;;;;;;13107274;22;20437;-90
2023/10/05 15:56:45;;;;;;;8.90;4.25;;;;;;;;;;13104799;22;20452;-91
2023/10/05 16:01:49;;;;;;;5.22;3.47;;;;;;;;;;13106143;22;20379;-90
2023/10/05 16:07:04;;;;;;;4.18;3.20;;;;;;;;;;13105773;22;20433;-90
2023/10/05 16:12:10;;;;;;;5.00;3.58;;;;;;;;;;13104521;22;20383;-89
2023/10/05 16:17:13;;;;;;;8.98;3.42;;;;;;;;;;13104809;22;20854;-89
2023/10/05 16:22:15;;;;;;;6.40;3.53;;;;;;;;;;13105986;22;20510;-90
2023/10/05 16:27:19;;;;;;;5.20;3.20;;;;;;;;;;13104606;22;20375;-90
2023/10/05 16:32:22;;;;;;;4.53;3.03;;;;;;;;;;13125353;22;20371;-89
2023/10/05 16:37:24;;;;;;;6.00;3.55;;;;;;;;;;13104057;22;20697;-89
2023/10/05 16:42:30;;;;;;;7.45;3.60;;;;;;;;;;13103018;22;20375;-88
2023/10/05 16:47:32;;;;;;;7.20;3.95;;;;;;;;;;13101163;22;20375;-90
2023/10/05 16:52:35;;;;;;;6.20;3.78;;;;;;;;;;13105221;22;20383;-96
2023/10/05 16:57:39;;;;;;;6.30;3.80;;;;;;;;;;13114061;22;21227;-94
2023/10/05 17:02:41;;;;;;;9.15;4.32;;;;;;;;;;13105817;22;20375;-95
2023/10/05 17:07:46;;;;;;;5.45;3.78;;;;;;;;;;13101285;22;20444;-94
2023/10/05 17:12:51;;;;;;;7.75;3.80;;;;;;;;;;13102272;22;20444;-94
2023/10/05 17:17:54;;;;;;;6.10;3.90;;;;;;;;;;13106774;22;20379;-93
2023/10/05 17:22:56;;;;;;;7.00;4.25;;;;;;;;;;13127717;22;20362;-95
2023/10/05 17:28:00;;;;;;;9.45;4.90;;;;;;;;;;13128971;22;20362;-95
2023/10/05 17:33:06;;;;;;;10.60;4.40;;;;;;;;;;13108492;22;20418;-95
2023/10/05 17:38:10;;;;;;;8.60;3.90;;;;;;;;;;13104337;22;20367;-96
2023/10/05 17:43:13;;;;;;;6.18;4.30;;;;;;;;;;13106444;22;20371;-94
2023/10/05 17:48:16;;;;;;;7.37;4.40;;;;;;;;;;13111787;22;20375;-91
2023/10/05 17:53:18;;;;;;;8.23;4.50;;;;;;;;;;13123220;22;20367;-92
2023/10/05 17:58:26;;;;;;;7.97;3.63;;;;;;;;;;13118517;22;20398;-95
2023/10/05 18:03:28;;;;;;;5.28;3.38;;;;;;;;;;13109432;22;20436;-95
2023/10/05 18:08:31;;;;;;;5.47;3.23;;;;;;;;;;13108177;22;20375;-90
2023/10/05 18:13:34;;;;;;;8.27;3.15;;;;;;;;;;13109894;22;20371;-92
2023/10/05 18:18:37;;;;;;;5.53;3.63;;;;;;;;;;13107122;22;20896;-87
2023/10/05 18:23:40;;;;;;;6.25;3.42;;;;;;;;;;13107457;22;20375;-95
2023/10/05 18:28:44;;;;;;;5.30;3.37;;;;;;;;;;13108821;22;20810;-94
2023/10/05 18:33:47;;;;;;;6.53;3.60;;;;;;;;;;13108704;22;20360;-94
2023/10/05 18:38:50;;;;;;;5.53;3.17;;;;;;;;;;13111024;22;20436;-95
2023/10/05 18:43:55;;;;;;;6.97;3.42;;;;;;;;;;13109749;22;20428;-92
2023/10/05 18:48:57;;;;;;;7.22;3.53;;;;;;;;;;13134840;22;20363;-92
2023/10/05 18:54:00;;;;;;;7.18;3.50;;;;;;;;;;13115048;22;20389;-95
2023/10/05 18:59:04;;;;;;;6.27;3.53;;;;;;;;;;13115300;22;20738;-95
2023/10/05 19:04:06;;;;;;;5.18;3.53;;;;;;;;;;13114649;22;20889;-92
2023/10/05 19:09:10;;;;;;;8.23;3.60;;;;;;;;;;13115948;22;20758;-90
2023/10/05 19:14:15;;;;;;;6.53;3.60;;;;;;;;;;13104484;22;20371;-90
2023/10/05 19:19:17;;;;;;;6.82;3.33;;;;;;;;;;13120268;22;20371;-90
2023/10/05 19:24:20;;;;;;;9.02;3.40;;;;;;;;;;13101781;22;20371;-91
2023/10/05 19:29:24;;;;;;;7.47;3.65;;;;;;;;;;13104728;22;20379;-90
2023/10/05 19:34:26;;;;;;;8.50;3.70;;;;;;;;;;13105654;22;20385;-93
2023/10/05 19:39:28;;;;;;;9.33;5.60;;;;;;;;;;13105940;22;20367;-92
2023/10/05 19:44:33;;;;;;;10.98;5.50;;;;;;;;;;13104790;22;20401;-92
2023/10/05 19:49:36;;;;;;;10.68;5.72;;;;;;;;;;13105963;22;20688;-91
2023/10/05 19:54:39;;;;;;;10.27;6.50;;;;;;;;;;13101922;22;20375;-93
2023/10/05 19:59:45;;;;;;;11.70;5.80;;;;;;;;;;13102670;22;20371;-93
2023/10/05 20:04:47;;;;;;;12.55;5.80;;;;;;;;;;13106579;22;20550;-93
2023/10/05 20:09:49;;;;;;;10.02;5.82;;;;;;;;;;13126891;22;20383;-92
2023/10/05 20:14:53;;;;;;;11.67;6.77;;;;;;;;;;13105126;22;20371;-93
2023/10/05 20:19:56;;;;;;;13.63;6.70;;;;;;;;;;13124499;22;20440;-94
2023/10/05 20:24:58;;;;;;;11.82;6.40;;;;;;;;;;13100533;22;20417;-93
2023/10/05 20:30:02;;;;;;;14.13;6.20;;;;;;;;;;13104599;22;20959;-94
2023/10/05 20:35:05;;;;;;;12.27;6.17;;;;;;;;;;13107326;22;20484;-93
2023/10/05 20:40:09;;;;;;;10.68;6.35;;;;;;;;;;13077603;22;20375;-93
2023/10/05 20:45:13;;;;;;;12.85;6.47;;;;;;;;;;13102233;22;20440;-93
2023/10/05 20:50:15;;;;;;;12.60;6.30;;;;;;;;;;13105322;22;20379;-91
2023/10/05 20:55:18;;;;;;;11.00;6.50;;;;;;;;;;13104767;22;20379;-91
2023/10/05 21:00:22;;;;;;;14.18;7.15;;;;;;;;;;13117172;22;21027;-91
2023/10/05 21:05:24;;;;;;;14.70;8.90;;;;;;;;;;13106900;22;20440;-92
2023/10/05 21:10:27;;;;;;;10.65;7.30;;;;;;;;;;13106775;22;20437;-92
2023/10/05 21:15:30;;;;;;;18.37;8.57;;;;;;;;;;13102138;22;20416;-90
2023/10/05 21:20:33;;;;;;;14.60;8.20;;;;;;;;;;13101433;22;20413;-91
2023/10/05 21:25:36;;;;;;;15.10;8.60;;;;;;;;;;13110192;22;20367;-90
2023/10/05 21:30:40;;;;;;;21.75;9.05;;;;;;;;;;13109244;22;20379;-91
2023/10/05 21:35:42;;;;;;;13.25;8.63;;;;;;;;;;13110441;22;20368;-91
2023/10/05 21:40:45;;;;;;;15.32;9.10;;;;;;;;;;13112604;22;20367;-91
2023/10/05 21:45:50;;;;;;;15.80;8.73;;;;;;;;;;13111864;22;20424;-91
2023/10/05 21:50:52;;;;;;;14.90;9.07;;;;;;;;;;13112361;22;20440;-90
2023/10/05 21:55:54;;;;;;;15.65;9.35;;;;;;;;;;13112927;22;20359;-91
2023/10/05 22:01:00;;;;;;;13.63;8.93;;;;;;;;;;13134226;22;20375;-91
2023/10/05 22:06:04;;;;;;;12.82;8.65;;;;;;;;;;13127588;22;20351;-91
2023/10/05 22:11:10;;;;;;;14.90;9.17;;;;;;;;;;13131253;22;20505;-90
2023/10/05 22:16:14;;;;;;;13.70;9.32;;;;;;;;;;13128614;22;20386;-91
2023/10/05 22:21:16;;;;;;;14.27;9.27;;;;;;;;;;13129534;22;20367;-91
2023/10/05 22:26:19;;;;;;;13.03;8.53;;;;;;;;;;13153015;22;20424;-90
2023/10/05 22:31:23;;;;;;;13.97;9.07;;;;;;;;;;13153456;22;20375;-91
2023/10/05 22:36:25;;;;;;;15.95;9.10;;;;;;;;;;13130959;22;20424;-90
2023/10/05 22:41:28;;;;;;;15.05;9.45;;;;;;;;;;13128063;22;20397;-91
2023/10/05 22:46:31;;;;;;;14.33;9.27;;;;;;;;;;13126494;22;20359;-91
2023/10/05 22:51:34;;;;;;;11.87;8.83;;;;;;;;;;13127097;22;20375;-91
2023/10/05 22:56:36;;;;;;;13.57;8.18;;;;;;;;;;13123126;22;20551;-91
2023/10/05 23:01:42;;;;;;;13.73;8.67;;;;;;;;;;13124666;22;20375;-91
2023/10/05 23:06:44;;;;;;;13.47;8.93;;;;;;;;;;13126499;22;20424;-91
2023/10/05 23:11:47;;;;;;;13.52;8.23;;;;;;;;;;13126917;22;20375;-90
2023/10/05 23:16:50;;;;;;;12.65;8.30;;;;;;;;;;13127093;22;20368;-89
2023/10/05 23:21:53;;;;;;;16.27;9.13;;;;;;;;;;13128216;22;20360;-90
2023/10/05 23:26:55;;;;;;;12.13;8.05;;;;;;;;;;13126646;22;20355;-90
2023/10/05 23:31:59;;;;;;;12.60;8.63;;;;;;;;;;13125207;22;20432;-91
2023/10/05 23:37:07;;;;;;;13.60;8.57;;;;;;;;;;13126169;22;20363;-91
2023/10/05 23:42:12;;;;;;;12.43;8.80;;;;;;;;;;13127303;22;20858;-90
2023/10/05 23:47:21;;;;;;;13.23;8.75;;;;;;;;;;13124965;22;20355;-90
2023/10/05 23:52:23;;;;;;;12.15;8.20;;;;;;;;;;13125997;22;20472;-91
2023/10/05 23:57:27;;;;;;;12.93;8.70;;;;;;;;;;13125643;22;20482;-91
